Time;durP1;ratioP1;P1;durP2;ratioP2;P2;SDS_P1;SDS_P2;PMS_P1;PMS_P2;Temp;Humidity;BMP_temperature;BMP_pressure;BME280_temperature;BME280_humidity;BME280_pressure;Samples;Min_cycle;Max_cycle;Signal;HPM_P1;HPM_P2
2022/11/02 00:01:49;;;;;;;7.57;3.03;;;;;;;21.00;63.82;100937.69;5017698;28;20639;-67
2022/11/02 00:04:15;;;;;;;6.40;2.90;;;;;;;20.98;63.75;100928.59;5053060;28;20257;-67
2022/11/02 00:06:40;;;;;;;7.90;3.30;;;;;;;20.98;63.53;100931.47;5050563;28;20476;-67
2022/11/02 00:09:06;;;;;;;5.70;3.27;;;;;;;20.96;63.43;100928.16;5048123;28;20235;-67
2022/11/02 00:11:31;;;;;;;6.53;2.90;;;;;;;20.96;63.82;100925.31;5034243;28;20206;-67
2022/11/02 00:13:57;;;;;;;7.40;3.47;;;;;;;20.95;63.66;100929.38;5051875;28;20266;-67
2022/11/02 00:16:24;;;;;;;6.83;3.13;;;;;;;20.96;63.41;100930.19;5050212;28;20199;-67
2022/11/02 00:18:50;;;;;;;4.57;2.60;;;;;;;20.94;63.75;100926.91;5047916;28;20184;-67
2022/11/02 00:21:16;;;;;;;8.13;3.10;;;;;;;20.96;64.18;100928.16;5049530;28;20438;-66
2022/11/02 00:23:42;;;;;;;6.23;2.93;;;;;;;20.99;64.52;100923.72;5051244;28;20414;-67
2022/11/02 00:26:07;;;;;;;7.63;3.20;;;;;;;20.97;64.39;100920.41;5048403;28;20779;-67
2022/11/02 00:28:32;;;;;;;8.40;2.93;;;;;;;20.99;64.08;100920.84;5039092;28;20184;-67
2022/11/02 00:30:58;;;;;;;5.50;2.70;;;;;;;21.04;64.19;100921.34;5030387;28;20164;-67
2022/11/02 00:33:23;;;;;;;54.93;6.13;;;;;;;21.05;64.37;100928.75;5030293;28;20168;-67
2022/11/02 00:35:49;;;;;;;39.47;4.17;;;;;;;21.05;64.10;100923.00;5031976;28;20207;-67
2022/11/02 00:38:14;;;;;;;29.90;4.40;;;;;;;21.04;64.65;100923.38;5050145;28;20203;-68
2022/11/02 00:40:40;;;;;;;13.93;3.60;;;;;;;21.03;64.57;100921.75;5051780;28;20160;-67
2022/11/02 00:43:05;;;;;;;20.10;3.90;;;;;;;21.00;64.53;100923.34;5051341;28;20708;-67
2022/11/02 00:45:31;;;;;;;9.60;2.97;;;;;;;21.01;65.12;100929.88;5030819;28;20187;-67
2022/11/02 00:47:57;;;;;;;13.00;3.00;;;;;;;21.01;65.00;100927.00;5044295;28;20218;-67
2022/11/02 00:50:22;;;;;;;10.70;3.60;;;;;;;21.01;65.19;100927.00;5050957;28;20643;-66
2022/11/02 00:52:47;;;;;;;11.50;2.87;;;;;;;20.97;64.83;100926.94;5032147;28;20227;-67
2022/11/02 00:55:14;;;;;;;8.43;3.00;;;;;;;20.98;65.09;100917.13;5013558;28;20176;-67
2022/11/02 00:57:39;;;;;;;8.70;2.87;;;;;;;21.00;65.20;100920.47;5031238;28;20204;-67
2022/11/02 01:00:07;;;;;;;10.23;2.63;;;;;;;21.01;65.12;100924.97;5021969;28;20430;-67
2022/11/02 01:02:33;;;;;;;16.13;2.70;;;;;;;21.00;65.39;100923.34;5053700;28;20156;-67
2022/11/02 01:04:58;;;;;;;9.90;2.93;;;;;;;21.00;64.67;100920.47;5073918;28;20437;-67
2022/11/02 01:07:23;;;;;;;8.87;2.73;;;;;;;20.99;65.03;100913.06;5075145;28;20688;-67
2022/11/02 01:09:49;;;;;;;11.33;3.17;;;;;;;21.01;65.31;100909.78;5075057;28;20646;-66
2022/11/02 01:12:14;;;;;;;8.90;2.87;;;;;;;21.00;64.95;100917.59;5075211;28;20630;-67
2022/11/02 01:14:40;;;;;;;6.03;2.13;;;;;;;21.01;64.84;100922.13;5062330;28;20192;-67
2022/11/02 01:17:05;;;;;;;6.53;3.43;;;;;;;21.01;64.71;100901.19;5039073;28;20223;-67
2022/11/02 01:19:31;;;;;;;6.30;2.50;;;;;;;20.99;64.84;100907.31;5052390;28;20183;-67
2022/11/02 01:21:56;;;;;;;6.37;2.23;;;;;;;21.03;64.32;100907.38;5053824;28;20174;-67
2022/11/02 01:24:21;;;;;;;6.13;2.50;;;;;;;21.01;64.56;100916.38;5055029;28;20167;-67
2022/11/02 01:26:51;;;;;;;8.60;2.87;;;;;;;20.98;64.47;100910.56;5055276;28;20226;-67
2022/11/02 01:29:17;;;;;;;4.93;2.40;;;;;;;20.95;65.08;100915.03;5053509;28;20160;-67
2022/11/02 01:31:42;;;;;;;12.67;2.67;;;;;;;20.93;65.12;100899.41;5053542;28;20440;-67
2022/11/02 01:34:09;;;;;;;10.87;2.50;;;;;;;20.91;65.34;100896.06;5047368;28;20176;-68
2022/11/02 01:36:35;;;;;;;6.10;2.20;;;;;;;20.91;65.32;100890.34;5033754;28;20235;-67
2022/11/02 01:39:00;;;;;;;14.10;2.97;;;;;;;20.90;65.26;100891.56;5044986;28;20422;-68
2022/11/02 01:41:25;;;;;;;9.23;2.50;;;;;;;20.92;65.74;100895.69;5036822;28;20229;-68
2022/11/02 01:43:53;;;;;;;5.83;2.57;;;;;;;20.91;65.08;100894.03;5036754;28;20168;-67
2022/11/02 01:46:21;;;;;;;8.17;2.10;;;;;;;20.92;65.62;100892.81;5053270;28;20187;-67
2022/11/02 01:48:50;;;;;;;5.37;2.10;;;;;;;20.92;65.51;100889.97;5036279;28;20433;-68
2022/11/02 01:51:22;;;;;;;9.40;2.60;;;;;;;20.90;65.62;100880.91;5053012;28;20508;-67
2022/11/02 01:53:48;;;;;;;5.37;2.57;;;;;;;20.90;65.79;100883.78;5052884;28;20475;-68
2022/11/02 01:56:15;;;;;;;6.80;2.40;;;;;;;20.90;65.70;100880.91;5052929;28;20414;-67
2022/11/02 01:58:41;;;;;;;7.67;2.30;;;;;;;20.90;65.29;100880.91;5054130;28;20574;-67
2022/11/02 02:01:07;;;;;;;5.23;2.13;;;;;;;20.89;65.87;100873.53;5019790;28;20418;-68
2022/11/02 02:03:33;;;;;;;5.40;2.97;;;;;;;20.88;65.80;100866.06;5052461;28;20969;-67
2022/11/02 02:06:10;;;;;;;5.53;2.47;;;;;;;20.88;65.51;100863.19;5036357;28;20420;-67
2022/11/02 02:08:38;;;;;;;4.27;2.20;;;;;;;20.87;66.02;100863.59;5052769;28;20175;-67
2022/11/02 02:11:29;;;;;;;5.47;2.33;;;;;;;20.85;65.50;100872.59;5033064;28;20419;-67
2022/11/02 02:13:59;;;;;;;4.20;2.03;;;;;;;20.86;66.09;100877.09;5033245;28;20458;-67
2022/11/02 02:16:47;;;;;;;4.83;2.37;;;;;;;20.84;65.71;100859.47;5043025;28;20476;-67
2022/11/02 02:19:41;;;;;;;5.70;2.63;;;;;;;20.83;65.86;100874.19;5024068;28;20422;-68
2022/11/02 02:22:37;;;;;;;6.63;2.60;;;;;;;20.80;65.94;100858.56;5051874;28;20472;-67
2022/11/02 02:25:36;;;;;;;4.43;1.63;;;;;;;20.79;66.19;100864.69;5037102;28;20410;-68
2022/11/02 02:28:20;;;;;;;7.70;2.10;;;;;;;20.80;66.69;100869.19;5053811;28;20383;-67
2022/11/02 02:30:49;;;;;;;4.13;1.90;;;;;;;20.79;65.92;100864.69;5053913;28;20413;-67
2022/11/02 02:33:48;;;;;;;6.60;2.30;;;;;;;20.79;66.27;100868.38;5052521;28;20470;-67
2022/11/02 02:36:25;;;;;;;4.27;1.90;;;;;;;20.78;66.49;100872.44;5052228;28;20425;-67
2022/11/02 02:39:01;;;;;;;5.93;2.23;;;;;;;20.78;66.26;100878.19;5052396;28;20433;-67
2022/11/02 02:41:40;;;;;;;3.87;1.90;;;;;;;20.78;66.53;100871.63;5052164;28;20978;-68
2022/11/02 02:44:09;;;;;;;8.93;2.10;;;;;;;20.73;66.59;100880.56;5052296;28;20406;-67
2022/11/02 02:46:44;;;;;;;5.53;2.13;;;;;;;20.75;66.45;100873.22;5036015;28;20520;-68
2022/11/02 02:49:12;;;;;;;3.60;2.10;;;;;;;20.76;66.26;100883.50;5051726;28;21023;-68
2022/11/02 02:51:38;;;;;;;4.03;1.93;;;;;;;20.74;66.33;100868.69;5035695;28;20853;-67
2022/11/02 02:54:12;;;;;;;5.20;2.00;;;;;;;20.73;66.48;100875.63;5052089;28;20403;-68
2022/11/02 02:56:43;;;;;;;4.50;2.00;;;;;;;20.72;66.54;100885.44;5051554;28;20191;-67
2022/11/02 02:59:17;;;;;;;4.53;2.10;;;;;;;20.74;66.64;100876.47;5035107;28;20415;-67
2022/11/02 03:01:42;;;;;;;5.00;2.47;;;;;;;20.71;66.59;100883.81;5051723;28;20840;-67
2022/11/02 03:04:11;;;;;;;3.70;1.97;;;;;;;20.71;66.37;100877.22;5040324;28;20443;-67
2022/11/02 03:06:37;;;;;;;3.57;1.70;;;;;;;20.74;66.44;100874.44;5031951;28;20634;-67
2022/11/02 03:09:21;;;;;;;3.53;1.80;;;;;;;20.71;66.65;100880.94;5017476;28;20430;-67
2022/11/02 03:11:50;;;;;;;4.80;2.03;;;;;;;20.69;66.35;100886.25;5033138;28;20507;-67
2022/11/02 03:14:20;;;;;;;5.80;2.10;;;;;;;20.73;66.37;100887.09;5037448;28;20433;-67
2022/11/02 03:17:06;;;;;;;3.53;1.90;;;;;;;20.70;66.86;100882.16;5051520;28;20473;-68
2022/11/02 03:19:52;;;;;;;7.23;2.83;;;;;;;20.70;66.95;100879.28;5051387;28;20468;-67
2022/11/02 03:22:33;;;;;;;4.47;1.77;;;;;;;20.70;66.73;100876.41;5051443;28;20417;-67
2022/11/02 03:25:29;;;;;;;4.57;2.30;;;;;;;20.68;66.74;100873.06;5051006;28;20447;-67
2022/11/02 03:28:07;;;;;;;3.60;1.60;;;;;;;20.68;67.06;100878.00;5023260;28;20835;-68
2022/11/02 03:30:35;;;;;;;5.43;2.30;;;;;;;20.69;66.63;100880.50;5052645;28;20418;-67
2022/11/02 03:33:08;;;;;;;4.20;2.40;;;;;;;20.67;66.77;100882.09;5051250;28;20480;-67
2022/11/02 03:36:00;;;;;;;5.17;2.00;;;;;;;20.67;66.73;100888.63;5023524;28;20426;-67
2022/11/02 03:38:36;;;;;;;4.60;2.10;;;;;;;20.66;66.74;100886.16;5027496;28;20438;-67
2022/11/02 03:41:01;;;;;;;4.23;2.20;;;;;;;20.66;67.12;100889.00;5031121;28;20422;-68
2022/11/02 03:43:27;;;;;;;5.30;2.00;;;;;;;20.65;66.94;100891.06;5014922;28;20403;-68
2022/11/02 03:45:56;;;;;;;4.80;1.77;;;;;;;20.66;67.17;100892.72;5014813;28;20212;-67
2022/11/02 03:48:24;;;;;;;3.80;1.83;;;;;;;20.66;66.73;100891.88;5032492;28;20153;-68
2022/11/02 03:50:49;;;;;;;4.50;1.83;;;;;;;20.64;67.07;100895.16;5031420;28;20412;-67
2022/11/02 03:53:40;;;;;;;3.57;1.90;;;;;;;20.65;66.77;100896.81;5018272;28;20528;-67
2022/11/02 03:56:08;;;;;;;3.23;1.57;;;;;;;20.63;66.92;100899.22;5019757;28;20199;-67
2022/11/02 03:58:34;;;;;;;4.37;1.73;;;;;;;20.66;67.01;100904.19;5017965;28;20456;-68
2022/11/02 04:01:02;;;;;;;3.63;1.77;;;;;;;20.65;67.10;100910.31;5017705;28;20418;-67
2022/11/02 04:03:28;;;;;;;3.60;1.90;;;;;;;20.64;66.86;100912.38;5030831;28;20446;-68
2022/11/02 04:05:53;;;;;;;4.20;1.77;;;;;;;20.64;66.76;100906.63;5057633;28;20423;-67
2022/11/02 04:08:23;;;;;;;5.47;2.17;;;;;;;20.61;67.11;100915.16;5074498;28;20170;-67
2022/11/02 04:16:17;;;;;;;3.73;1.80;;;;;;;20.60;67.02;100922.94;5056428;28;20458;-67
2022/11/02 04:21:26;;;;;;;4.10;1.93;;;;;;;20.60;67.40;100919.22;5071530;28;20669;-67
2022/11/02 04:26:36;;;;;;;3.10;1.83;;;;;;;20.61;67.08;100923.75;5056614;28;20265;-67
2022/11/02 04:29:02;;;;;;;2.90;1.67;;;;;;;20.60;66.91;100930.72;5053598;28;20869;-67
2022/11/02 04:31:27;;;;;;;4.03;1.80;;;;;;;20.59;67.17;100929.06;5053053;28;20642;-67
2022/11/02 04:33:53;;;;;;;3.50;1.90;;;;;;;20.57;67.15;100938.03;5053170;28;20182;-67
2022/11/02 04:36:18;;;;;;;3.80;1.80;;;;;;;20.59;67.46;100946.28;5055235;28;20201;-68
2022/11/02 04:38:43;;;;;;;2.93;1.73;;;;;;;20.59;67.15;100949.13;5074996;28;20697;-68
2022/11/02 04:44:01;;;;;;;3.17;1.80;;;;;;;20.58;67.04;100951.16;5060219;28;20233;-68
2022/11/02 04:46:28;;;;;;;3.00;1.67;;;;;;;20.60;67.21;100953.66;5057447;28;20501;-68
2022/11/02 04:48:53;;;;;;;3.10;1.50;;;;;;;20.58;67.14;100954.03;5041167;28;20171;-67
2022/11/02 04:51:19;;;;;;;4.30;1.80;;;;;;;20.59;67.17;100958.59;5057089;28;20975;-67
2022/11/02 04:53:45;;;;;;;3.73;1.70;;;;;;;20.57;67.36;100965.91;5057870;28;20163;-67
2022/11/02 04:56:11;;;;;;;2.70;1.60;;;;;;;20.58;66.92;100964.69;5057263;28;20424;-67
2022/11/02 04:58:36;;;;;;;4.00;1.90;;;;;;;20.57;67.44;100968.78;5075240;28;20429;-68
2022/11/02 05:01:06;;;;;;;3.53;1.70;;;;;;;20.56;67.31;100972.84;5075338;28;20197;-67
2022/11/02 05:03:31;;;;;;;3.40;1.80;;;;;;;20.57;67.13;100972.47;5048093;28;20226;-67
2022/11/02 05:05:57;;;;;;;3.37;1.90;;;;;;;20.55;67.34;100971.19;5084548;28;20409;-67
2022/11/02 05:08:22;;;;;;;3.70;1.40;;;;;;;20.56;67.07;100982.28;5057541;28;20163;-67
2022/11/02 05:10:47;;;;;;;2.90;1.27;;;;;;;20.56;67.17;100990.88;5075084;28;20209;-67
2022/11/02 05:13:13;;;;;;;3.37;1.60;;;;;;;20.56;67.38;100995.78;5075409;28;20175;-67
2022/11/02 05:15:38;;;;;;;3.80;1.97;;;;;;;20.57;67.25;100995.41;5056515;28;20187;-67
2022/11/02 05:18:04;;;;;;;4.70;1.67;;;;;;;20.57;67.10;101003.22;5074915;28;20655;-67
2022/11/02 05:20:29;;;;;;;3.23;1.60;;;;;;;20.55;66.92;100994.13;5056705;28;20183;-67
2022/11/02 05:22:55;;;;;;;3.20;1.70;;;;;;;20.55;67.37;101003.59;5057674;28;20171;-67
2022/11/02 05:25:20;;;;;;;3.33;1.67;;;;;;;20.55;67.42;100991.25;5075052;28;20709;-67
2022/11/02 05:27:46;;;;;;;2.80;1.53;;;;;;;20.52;67.49;100998.59;5040543;28;20174;-67
2022/11/02 05:30:11;;;;;;;3.07;1.73;;;;;;;20.54;67.23;100993.31;5074919;28;20175;-67
2022/11/02 05:32:37;;;;;;;3.47;1.80;;;;;;;20.56;67.37;100992.91;5056546;28;20165;-67
2022/11/02 05:35:03;;;;;;;3.63;2.07;;;;;;;20.54;67.02;100993.31;5055710;28;20163;-67
2022/11/02 05:37:29;;;;;;;3.80;1.67;;;;;;;20.52;67.23;100998.59;5055697;28;20206;-67
2022/11/02 05:39:54;;;;;;;3.90;2.13;;;;;;;20.54;67.16;101001.94;5073612;28;20748;-67
2022/11/02 05:42:19;;;;;;;2.37;1.53;;;;;;;20.52;67.67;101001.44;5073611;28;20171;-67
2022/11/02 05:44:45;;;;;;;4.73;1.93;;;;;;;20.53;67.08;101008.03;5055575;28;20589;-67
2022/11/02 05:47:10;;;;;;;3.20;1.43;;;;;;;20.52;67.21;101000.66;5073289;28;20627;-67
2022/11/02 05:49:36;;;;;;;3.00;1.77;;;;;;;20.51;67.44;101001.81;5074749;28;20179;-67
2022/11/02 05:52:01;;;;;;;3.47;1.30;;;;;;;20.52;67.22;101007.19;5074407;28;20230;-67
2022/11/02 05:54:27;;;;;;;3.53;1.40;;;;;;;20.52;67.51;101015.78;5039919;28;20594;-67
2022/11/02 05:56:52;;;;;;;2.20;1.37;;;;;;;20.52;67.24;101015.00;5074402;28;20771;-67
2022/11/02 05:59:18;;;;;;;3.93;1.83;;;;;;;20.53;67.51;101014.59;5056427;28;20170;-67
2022/11/02 06:01:43;;;;;;;4.40;1.67;;;;;;;20.51;67.36;101014.16;5056030;28;20178;-68
2022/11/02 06:04:09;;;;;;;4.00;1.80;;;;;;;20.53;66.93;101026.06;5060274;28;20201;-67
2022/11/02 06:06:34;;;;;;;3.20;1.80;;;;;;;20.53;67.39;101023.19;5059547;28;20159;-67
2022/11/02 06:08:59;;;;;;;5.10;2.20;;;;;;;20.53;66.96;101026.06;5076193;28;20625;-67
2022/11/02 06:11:25;;;;;;;2.40;1.30;;;;;;;20.53;67.45;101031.78;5063977;28;20226;-67
2022/11/02 06:13:50;;;;;;;4.53;2.10;;;;;;;20.50;67.08;101032.56;5055766;28;20237;-67
2022/11/02 06:16:16;;;;;;;2.60;1.27;;;;;;;20.51;67.37;101034.22;5055891;28;20175;-67
2022/11/02 06:18:42;;;;;;;3.73;1.57;;;;;;;20.52;67.16;101037.94;5022719;28;20816;-67
2022/11/02 06:21:08;;;;;;;2.80;1.40;;;;;;;20.53;67.18;101048.19;5056102;28;20421;-67
2022/11/02 06:23:33;;;;;;;5.80;1.80;;;;;;;20.53;67.03;101056.81;5039306;28;20312;-67
2022/11/02 06:25:59;;;;;;;2.97;1.33;;;;;;;20.51;67.43;101068.66;5073947;28;20170;-67
2022/11/02 06:28:24;;;;;;;3.60;1.73;;;;;;;20.50;67.58;101075.59;5037282;28;20167;-67
2022/11/02 06:30:50;;;;;;;3.27;1.70;;;;;;;20.49;67.30;101076.81;5072045;28;20542;-67
2022/11/02 06:33:16;;;;;;;2.80;1.37;;;;;;;20.49;67.49;101082.53;5039196;28;20159;-67
2022/11/02 06:35:49;;;;;;;2.33;1.20;;;;;;;20.51;67.28;101083.00;5055616;28;20439;-67
2022/11/02 06:38:15;;;;;;;3.20;1.37;;;;;;;20.52;67.55;101089.56;5073032;28;20662;-67
2022/11/02 06:40:41;;;;;;;3.00;1.50;;;;;;;20.50;67.26;101084.19;5048449;28;20429;-67
2022/11/02 06:43:06;;;;;;;3.07;1.57;;;;;;;20.50;67.35;101092.81;5035186;28;20589;-67
2022/11/02 06:45:31;;;;;;;3.10;1.67;;;;;;;20.48;67.36;101098.09;5038180;28;20179;-67
2022/11/02 06:47:57;;;;;;;5.07;1.47;;;;;;;20.51;67.19;101103.06;5071908;28;20179;-67
2022/11/02 06:50:23;;;;;;;3.10;1.33;;;;;;;20.50;67.57;101107.16;5053808;28;20187;-67
2022/11/02 06:52:49;;;;;;;3.10;1.53;;;;;;;20.48;67.27;101109.56;5030826;28;20314;-67
2022/11/02 06:55:15;;;;;;;4.83;1.40;;;;;;;20.48;67.51;101109.56;5032465;28;20533;-67
2022/11/02 06:57:41;;;;;;;3.70;1.30;;;;;;;20.51;67.59;101110.84;5049288;28;20191;-67
2022/11/02 07:00:08;;;;;;;3.17;1.50;;;;;;;20.50;67.57;101107.16;5039353;28;20187;-67
2022/11/02 07:02:34;;;;;;;3.77;1.37;;;;;;;20.49;67.45;101108.38;5043617;28;20455;-67
2022/11/02 07:04:59;;;;;;;2.53;1.47;;;;;;;20.51;67.50;101113.69;5052330;28;20442;-67
2022/11/02 07:07:25;;;;;;;2.70;1.50;;;;;;;20.49;67.27;101110.38;5050895;28;20160;-67
2022/11/02 07:09:50;;;;;;;2.93;1.73;;;;;;;20.47;67.31;101119.38;5031487;28;20195;-67
2022/11/02 07:12:15;;;;;;;2.40;1.20;;;;;;;20.51;67.50;101119.44;5044717;28;20548;-67
2022/11/02 07:14:41;;;;;;;3.70;1.30;;;;;;;20.47;67.45;101125.09;5030366;28;20680;-67
2022/11/02 07:17:06;;;;;;;2.70;1.20;;;;;;;20.47;67.46;101130.84;5032002;28;20595;-67
2022/11/02 07:19:32;;;;;;;4.10;1.70;;;;;;;20.48;67.39;101126.78;5038730;28;20184;-67
2022/11/02 07:21:57;;;;;;;3.30;1.60;;;;;;;20.48;67.49;101140.28;5034162;28;20533;-67
2022/11/02 07:24:23;;;;;;;2.43;1.43;;;;;;;20.50;67.24;101141.56;5029352;28;20642;-67
2022/11/02 07:26:49;;;;;;;2.57;1.27;;;;;;;20.48;67.51;101144.00;5039321;28;20548;-67
2022/11/02 07:29:15;;;;;;;2.43;1.27;;;;;;;20.47;67.57;101142.31;5042922;28;20192;-67
2022/11/02 07:31:40;;;;;;;3.00;1.50;;;;;;;20.48;67.58;101143.16;5033554;28;20411;-67
2022/11/02 07:34:06;;;;;;;2.43;1.47;;;;;;;20.46;67.64;101146.41;5037843;28;20496;-67
2022/11/02 07:36:31;;;;;;;2.80;1.30;;;;;;;20.49;67.35;101159.16;5041137;28;20329;-67
2022/11/02 07:38:57;;;;;;;3.23;1.60;;;;;;;20.49;67.13;101162.88;5040721;28;20256;-67
2022/11/02 07:41:22;;;;;;;3.50;1.40;;;;;;;20.46;67.71;101160.72;5049760;28;20180;-68
2022/11/02 07:43:47;;;;;;;2.87;1.30;;;;;;;20.49;67.48;101162.88;5039691;28;20184;-67
2022/11/02 07:46:13;;;;;;;2.30;1.27;;;;;;;20.49;67.73;101167.75;5045582;28;20199;-67
2022/11/02 07:48:38;;;;;;;2.80;1.37;;;;;;;20.49;67.60;101173.50;5038481;28;20180;-67
2022/11/02 07:51:05;;;;;;;2.30;1.37;;;;;;;20.48;67.50;101172.69;5041307;28;20233;-67
2022/11/02 07:53:31;;;;;;;2.83;1.50;;;;;;;20.47;67.54;101171.00;5055682;28;20183;-67
2022/11/02 07:56:01;;;;;;;2.43;1.20;;;;;;;20.49;67.56;101168.59;5046355;28;20495;-67
2022/11/02 07:58:27;;;;;;;2.10;1.20;;;;;;;20.51;67.31;101169.06;5022580;28;20203;-67
2022/11/02 08:00:53;;;;;;;2.30;1.20;;;;;;;20.47;67.45;101171.00;5053259;28;20889;-67
2022/11/02 08:03:18;;;;;;;3.70;1.57;;;;;;;20.49;67.57;101185.81;5042900;28;20270;-67
2022/11/02 08:05:44;;;;;;;2.13;1.30;;;;;;;20.41;67.82;101180.28;5052819;28;20691;-66
2022/11/02 08:08:14;;;;;;;4.70;1.90;;;;;;;20.42;66.59;101179.06;5042514;28;20631;-67
2022/11/02 08:10:40;;;;;;;11.50;2.57;;;;;;;20.53;66.23;101188.75;5029352;28;20183;-68
2022/11/02 08:13:07;;;;;;;13.63;4.70;;;;;;;20.67;65.84;101180.50;5053240;28;20817;-68
2022/11/02 08:15:32;;;;;;;11.07;3.10;;;;;;;20.55;62.79;101190.06;5042830;28;20179;-68
2022/11/02 08:18:02;;;;;;;14.03;4.17;;;;;;;20.37;63.45;101177.31;5051366;28;20834;-68
2022/11/02 08:20:28;;;;;;;20.07;3.17;;;;;;;20.26;62.78;101176.22;5036597;28;20553;-67
2022/11/02 08:22:54;;;;;;;13.73;2.97;;;;;;;20.16;62.96;101176.78;5048681;28;20425;-68
2022/11/02 08:25:19;;;;;;;9.97;2.33;;;;;;;20.25;61.07;101179.44;5049325;28;20183;-66
2022/11/02 08:27:44;;;;;;;16.03;3.10;;;;;;;20.35;61.64;101191.19;5052702;28;20187;-67
2022/11/02 08:30:10;;;;;;;12.60;2.90;;;;;;;20.46;62.20;101186.56;5052052;28;20175;-66
2022/11/02 08:32:36;;;;;;;15.07;3.27;;;;;;;20.49;61.99;101185.81;5055651;28;20219;-66
2022/11/02 08:35:01;;;;;;;16.00;2.70;;;;;;;20.48;62.48;101189.91;5054379;28;20190;-66
2022/11/02 08:37:27;;;;;;;14.17;2.90;;;;;;;20.52;62.44;101192.84;5051508;28;20256;-66
2022/11/02 08:39:52;;;;;;;13.80;2.83;;;;;;;20.53;62.99;101194.50;5042595;28;20175;-66
2022/11/02 08:42:17;;;;;;;10.77;2.90;;;;;;;20.54;62.76;101188.41;5055615;28;20187;-66
2022/11/02 08:44:43;;;;;;;12.60;4.17;;;;;;;20.57;63.05;101184.75;5050292;28;20245;-66
2022/11/02 08:47:08;;;;;;;17.00;2.70;;;;;;;20.64;61.90;101182.09;5048153;28;20181;-66
2022/11/02 08:49:34;;;;;;;12.30;2.20;;;;;;;20.87;62.97;101183.00;5035258;28;20275;-67
2022/11/02 08:51:59;;;;;;;7.57;2.40;;;;;;;21.11;64.01;101179.91;5051337;28;20234;-68
2022/11/02 08:54:25;;;;;;;9.23;1.83;;;;;;;21.03;62.87;101183.81;5035134;28;20187;-67
2022/11/02 08:56:50;;;;;;;14.20;2.70;;;;;;;20.95;63.64;101196.38;5038353;28;20992;-68
2022/11/02 08:59:15;;;;;;;10.57;3.00;;;;;;;20.85;64.85;101196.94;5034777;28;20187;-67
2022/11/02 09:01:41;;;;;;;9.30;3.10;;;;;;;20.82;65.26;101208.34;5030176;28;20191;-66
2022/11/02 09:04:06;;;;;;;6.83;2.47;;;;;;;20.78;65.17;101204.53;5055627;28;20200;-67
2022/11/02 09:06:32;;;;;;;8.03;2.40;;;;;;;20.75;65.70;101211.84;5032489;28;20187;-67
2022/11/02 09:08:57;;;;;;;8.10;2.80;;;;;;;20.77;65.95;101208.63;5055360;28;20194;-67
2022/11/02 09:11:23;;;;;;;11.07;2.67;;;;;;;20.77;65.73;101202.88;5051294;28;20201;-68
2022/11/02 09:13:48;;;;;;;11.63;2.80;;;;;;;20.79;65.39;101201.31;5021155;28;20187;-67
2022/11/02 09:16:13;;;;;;;12.80;2.20;;;;;;;20.79;65.48;101192.69;5053446;28;20203;-67
2022/11/02 09:18:39;;;;;;;5.27;2.50;;;;;;;20.78;65.62;101198.81;5036827;28;20595;-66
2022/11/02 09:21:05;;;;;;;8.37;2.50;;;;;;;20.77;65.15;101197.94;5057168;28;20565;-67
2022/11/02 09:23:30;;;;;;;6.83;2.10;;;;;;;20.72;64.58;101198.25;5037159;28;20622;-67
2022/11/02 09:25:56;;;;;;;4.73;2.10;;;;;;;20.67;64.97;101201.41;5034973;28;20211;-67
2022/11/02 09:28:22;;;;;;;7.60;1.90;;;;;;;20.64;64.28;101207.06;5022460;28;20223;-67
2022/11/02 09:30:47;;;;;;;7.57;1.77;;;;;;;20.62;64.13;101207.44;5030705;28;20473;-67
2022/11/02 09:33:13;;;;;;;14.53;2.70;;;;;;;20.58;63.98;101220.84;5039226;28;20187;-67
2022/11/02 09:35:41;;;;;;;6.77;1.97;;;;;;;20.57;64.33;101222.06;5049910;28;20183;-67
2022/11/02 09:38:07;;;;;;;11.00;2.70;;;;;;;20.57;63.97;101210.59;5038371;28;20255;-68
2022/11/02 09:40:57;;;;;;;12.27;2.50;;;;;;;20.56;63.75;101205.22;5054390;28;21064;-67
2022/11/02 09:43:22;;;;;;;5.87;2.10;;;;;;;20.53;63.79;101212.53;5024055;28;20217;-68
2022/11/02 09:45:53;;;;;;;3.93;1.70;;;;;;;20.53;63.86;101208.84;5055587;28;20429;-67
2022/11/02 09:48:21;;;;;;;13.23;2.37;;;;;;;20.54;64.35;101216.25;5053584;28;20187;-67
2022/11/02 09:51:05;;;;;;;14.40;2.30;;;;;;;20.55;64.53;101210.13;5038928;28;20434;-67
2022/11/02 09:53:35;;;;;;;12.27;3.40;;;;;;;20.48;64.31;101207.09;5038426;28;20916;-66
2022/11/02 09:56:01;;;;;;;10.37;2.30;;;;;;;20.44;63.69;101208.22;5025769;28;20430;-67
2022/11/02 09:58:33;;;;;;;9.90;2.00;;;;;;;20.43;62.53;101212.28;5023773;28;20454;-67
2022/11/02 10:01:02;;;;;;;7.27;2.20;;;;;;;20.43;62.41;101207.41;5039378;28;20194;-67
2022/11/02 10:03:41;;;;;;;8.40;2.50;;;;;;;20.48;62.56;101214.88;5013626;28;20430;-67
2022/11/02 10:06:18;;;;;;;6.90;1.83;;;;;;;20.52;62.52;101210.88;5038688;28;20520;-67
2022/11/02 10:09:09;;;;;;;16.90;2.50;;;;;;;20.52;62.95;101207.19;5041637;28;21187;-67
2022/11/02 10:11:51;;;;;;;11.47;2.10;;;;;;;20.51;62.87;101211.25;5047042;28;21160;-67
2022/11/02 10:14:22;;;;;;;7.47;2.40;;;;;;;20.52;62.77;101205.13;5056129;28;20430;-67
2022/11/02 10:17:03;;;;;;;5.43;1.90;;;;;;;20.53;63.11;101203.13;5039396;28;20469;-67
2022/11/02 10:19:28;;;;;;;10.13;1.70;;;;;;;20.56;63.41;101199.47;5041847;28;20462;-67
2022/11/02 10:21:56;;;;;;;8.53;2.00;;;;;;;20.55;63.50;101198.66;5023657;28;20430;-67
2022/11/02 10:24:30;;;;;;;5.30;2.00;;;;;;;20.54;63.62;101205.63;5046896;28;20178;-67
2022/11/02 10:26:59;;;;;;;8.90;2.00;;;;;;;20.58;63.78;101200.78;5058469;28;20998;-67
2022/11/02 10:29:45;;;;;;;4.70;1.83;;;;;;;20.57;64.06;101201.16;5038995;28;20444;-67
2022/11/02 10:32:11;;;;;;;6.70;1.60;;;;;;;20.59;63.35;101205.31;5056740;28;20907;-67
2022/11/02 10:34:37;;;;;;;6.93;2.67;;;;;;;20.54;63.94;101199.88;5038606;28;20414;-67
2022/11/02 10:37:06;;;;;;;11.90;2.67;;;;;;;20.59;64.07;101207.34;5065174;28;20582;-67
2022/11/02 10:40:00;;;;;;;7.13;2.30;;;;;;;20.59;63.86;101211.06;5052254;28;20210;-67
2022/11/02 10:43:04;;;;;;;6.60;2.20;;;;;;;20.58;64.07;101206.50;5044635;28;20434;-67
2022/11/02 10:45:57;;;;;;;5.83;2.00;;;;;;;20.56;64.35;101214.66;5045570;28;20429;-67
2022/11/02 10:48:28;;;;;;;11.50;2.50;;;;;;;20.58;64.07;101217.16;5059081;28;20425;-67
2022/11/02 10:51:12;;;;;;;5.70;1.97;;;;;;;20.53;64.88;101215.41;5059558;28;20531;-67
2022/11/02 10:53:42;;;;;;;5.80;1.90;;;;;;;20.56;64.32;101206.06;5043780;28;20449;-67
2022/11/02 10:56:40;;;;;;;5.60;1.90;;;;;;;20.56;64.87;101208.94;5053157;28;20920;-67
2022/11/02 10:59:12;;;;;;;5.80;1.70;;;;;;;20.55;64.69;101207.28;5046602;28;21007;-67
2022/11/02 11:01:38;;;;;;;9.33;2.40;;;;;;;20.56;64.64;101205.22;5023012;28;20508;-67
2022/11/02 11:04:05;;;;;;;5.50;1.80;;;;;;;20.54;64.73;101205.63;5023548;28;20795;-67
2022/11/02 11:06:35;;;;;;;6.93;2.00;;;;;;;20.56;64.74;101206.06;5024107;28;20455;-67
2022/11/02 11:09:06;;;;;;;5.63;2.17;;;;;;;20.57;64.76;101201.16;5038486;28;20444;-67
2022/11/02 11:11:35;;;;;;;5.33;2.00;;;;;;;20.55;65.06;101198.66;5038420;28;20428;-67
2022/11/02 11:14:14;;;;;;;6.50;1.80;;;;;;;20.55;65.15;101195.78;5053655;28;20515;-67
2022/11/02 11:16:45;;;;;;;6.00;1.73;;;;;;;20.54;65.34;101188.41;5038321;28;21125;-67
2022/11/02 11:19:22;;;;;;;8.30;1.90;;;;;;;20.56;64.91;101191.72;5052572;28;20425;-67
2022/11/02 11:21:50;;;;;;;11.70;2.57;;;;;;;20.58;64.96;101183.56;5034428;28;20996;-67
2022/11/02 11:24:23;;;;;;;5.37;1.70;;;;;;;20.57;65.66;101184.75;5035125;28;20446;-67
2022/11/02 11:27:04;;;;;;;4.37;2.07;;;;;;;20.60;64.95;101174.56;5053194;28;20413;-67
2022/11/02 11:29:34;;;;;;;6.70;1.87;;;;;;;20.58;65.40;101174.94;5050739;28;20433;-67
2022/11/02 11:32:00;;;;;;;3.37;1.83;;;;;;;20.59;65.03;101165.16;5020684;28;20418;-67
2022/11/02 11:34:30;;;;;;;4.70;1.70;;;;;;;20.60;65.45;101169.69;5034241;28;20507;-67
2022/11/02 11:37:13;;;;;;;3.30;1.50;;;;;;;20.58;65.34;101160.59;5026769;28;20214;-67
2022/11/02 11:39:39;;;;;;;5.00;2.10;;;;;;;20.60;65.57;101169.69;5036018;28;20897;-67
2022/11/02 11:42:16;;;;;;;4.73;1.30;;;;;;;20.59;65.23;101162.28;5039194;28;20897;-67
2022/11/02 11:44:58;;;;;;;5.13;1.50;;;;;;;20.60;65.30;101157.38;5027461;28;21037;-67
2022/11/02 11:47:37;;;;;;;7.33;2.30;;;;;;;20.59;65.42;101149.97;5033142;28;20422;-67